sensor_id;sensor_type;location;lat;lon;timestamp;pressure;altitude;pressure_sealevel;temperature;humidity
65666;BME280;52365;47.464;18.976;2023-03-01T00:00:31;100834.44;;;5.62;54.04
65666;BME280;52365;47.464;18.976;2023-03-01T00:01:10;100835.34;;;6.00;53.66
65666;BME280;52365;47.464;18.976;2023-03-01T00:01:46;100831.00;;;6.17;53.05
65666;BME280;52365;47.464;18.976;2023-03-01T00:02:22;100839.81;;;6.55;51.97
65666;BME280;52365;47.464;18.976;2023-03-01T00:02:58;100836.22;;;6.69;51.50
65666;BME280;52365;47.464;18.976;2023-03-01T00:03:35;100832.28;;;6.77;51.00
65666;BME280;52365;47.464;18.976;2023-03-01T00:04:11;100834.75;;;6.95;50.84
65666;BME280;52365;47.464;18.976;2023-03-01T00:04:47;100836.72;;;7.21;50.04
65666;BME280;52365;47.464;18.976;2023-03-01T00:05:23;100840.47;;;7.27;49.41
65666;BME280;52365;47.464;18.976;2023-03-01T00:05:59;100828.22;;;6.65;50.60
65666;BME280;52365;47.464;18.976;2023-03-01T00:06:36;100833.50;;;6.72;50.85
65666;BME280;52365;47.464;18.976;2023-03-01T00:07:13;100827.88;;;6.63;51.00
65666;BME280;52365;47.464;18.976;2023-03-01T00:07:53;100840.78;;;6.72;51.21
65666;BME280;52365;47.464;18.976;2023-03-01T00:08:29;100831.16;;;6.74;50.94
65666;BME280;52365;47.464;18.976;2023-03-01T00:09:08;100831.97;;;5.89;52.57
65666;BME280;52365;47.464;18.976;2023-03-01T00:09:44;100833.44;;;6.00;53.17
65666;BME280;52365;47.464;18.976;2023-03-01T00:10:21;100830.13;;;5.78;53.65
65666;BME280;52365;47.464;18.976;2023-03-01T00:11:05;100831.69;;;6.24;52.99
65666;BME280;52365;47.464;18.976;2023-03-01T00:11:41;100829.97;;;6.03;53.16
65666;BME280;52365;47.464;18.976;2023-03-01T00:12:17;100829.03;;;5.76;53.86
65666;BME280;52365;47.464;18.976;2023-03-01T00:12:53;100833.84;;;5.95;53.77
65666;BME280;52365;47.464;18.976;2023-03-01T00:13:31;100824.22;;;6.05;53.28
65666;BME280;52365;47.464;18.976;2023-03-01T00:14:07;100829.94;;;6.07;53.20
65666;BME280;52365;47.464;18.976;2023-03-01T00:14:43;100836.22;;;6.31;52.84
65666;BME280;52365;47.464;18.976;2023-03-01T00:15:19;100832.12;;;6.57;51.90
65666;BME280;52365;47.464;18.976;2023-03-01T00:15:55;100837.34;;;6.34;52.20
65666;BME280;52365;47.464;18.976;2023-03-01T00:16:37;100835.16;;;6.21;52.42
65666;BME280;52365;47.464;18.976;2023-03-01T00:17:17;100832.22;;;6.09;53.13
65666;BME280;52365;47.464;18.976;2023-03-01T00:17:53;100838.22;;;5.71;53.72
65666;BME280;52365;47.464;18.976;2023-03-01T00:18:29;100834.56;;;6.03;53.34
65666;BME280;52365;47.464;18.976;2023-03-01T00:19:06;100839.63;;;5.94;53.65
65666;BME280;52365;47.464;18.976;2023-03-01T00:19:42;100838.28;;;6.16;53.34
65666;BME280;52365;47.464;18.976;2023-03-01T00:20:18;100840.37;;;6.36;52.53
65666;BME280;52365;47.464;18.976;2023-03-01T00:20:55;100840.97;;;6.13;52.99
65666;BME280;52365;47.464;18.976;2023-03-01T00:21:31;100834.81;;;6.19;52.84
65666;BME280;52365;47.464;18.976;2023-03-01T00:22:07;100837.53;;;6.12;53.12
65666;BME280;52365;47.464;18.976;2023-03-01T00:22:43;100846.75;;;6.49;52.45
65666;BME280;52365;47.464;18.976;2023-03-01T00:23:20;100841.56;;;6.31;52.43
65666;BME280;52365;47.464;18.976;2023-03-01T00:23:56;100843.94;;;6.22;52.60
65666;BME280;52365;47.464;18.976;2023-03-01T00:24:32;100852.22;;;5.90;53.43
65666;BME280;52365;47.464;18.976;2023-03-01T00:25:09;100835.78;;;5.88;53.90
65666;BME280;52365;47.464;18.976;2023-03-01T00:25:45;100841.69;;;6.17;53.54
65666;BME280;52365;47.464;18.976;2023-03-01T00:26:22;100844.88;;;6.46;52.47
65666;BME280;52365;47.464;18.976;2023-03-01T00:26:59;100845.81;;;6.28;52.50
65666;BME280;52365;47.464;18.976;2023-03-01T00:27:35;100842.44;;;6.21;52.71
65666;BME280;52365;47.464;18.976;2023-03-01T00:28:11;100845.66;;;6.01;53.27
65666;BME280;52365;47.464;18.976;2023-03-01T00:28:48;100847.97;;;5.99;53.43
65666;BME280;52365;47.464;18.976;2023-03-01T00:29:25;100853.22;;;6.10;53.59
65666;BME280;52365;47.464;18.976;2023-03-01T00:30:01;100843.47;;;5.86;53.61
65666;BME280;52365;47.464;18.976;2023-03-01T00:30:37;100838.91;;;5.79;54.18
65666;BME280;52365;47.464;18.976;2023-03-01T00:31:15;100845.66;;;6.01;53.87
65666;BME280;52365;47.464;18.976;2023-03-01T00:31:52;100844.69;;;6.22;53.04
65666;BME280;52365;47.464;18.976;2023-03-01T00:32:28;100843.31;;;6.07;53.69
65666;BME280;52365;47.464;18.976;2023-03-01T00:33:05;100848.19;;;6.19;53.25
65666;BME280;52365;47.464;18.976;2023-03-01T00:33:41;100851.72;;;6.05;53.16
65666;BME280;52365;47.464;18.976;2023-03-01T00:34:17;100845.50;;;6.19;53.18
65666;BME280;52365;47.464;18.976;2023-03-01T00:34:53;100845.00;;;6.31;52.46
65666;BME280;52365;47.464;18.976;2023-03-01T00:35:32;100843.22;;;6.18;52.93
65666;BME280;52365;47.464;18.976;2023-03-01T00:36:10;100847.72;;;5.79;53.92
65666;BME280;52365;47.464;18.976;2023-03-01T00:36:46;100846.63;;;5.70;54.27
65666;BME280;52365;47.464;18.976;2023-03-01T00:37:23;100847.94;;;6.03;53.73
65666;BME280;52365;47.464;18.976;2023-03-01T00:37:59;100847.37;;;6.22;53.35
65666;BME280;52365;47.464;18.976;2023-03-01T00:38:38;100849.34;;;6.56;52.45
65666;BME280;52365;47.464;18.976;2023-03-01T00:39:15;100852.34;;;6.62;51.91
65666;BME280;52365;47.464;18.976;2023-03-01T00:39:51;100842.81;;;6.95;51.27
65666;BME280;52365;47.464;18.976;2023-03-01T00:40:28;100849.09;;;7.12;50.53
65666;BME280;52365;47.464;18.976;2023-03-01T00:41:12;100845.94;;;6.90;50.54
65666;BME280;52365;47.464;18.976;2023-03-01T00:41:48;100852.19;;;7.10;50.36
65666;BME280;52365;47.464;18.976;2023-03-01T00:42:25;100851.59;;;6.61;51.60
65666;BME280;52365;47.464;18.976;2023-03-01T00:43:01;100848.91;;;6.61;51.77
65666;BME280;52365;47.464;18.976;2023-03-01T00:43:38;100847.84;;;6.55;51.78
65666;BME280;52365;47.464;18.976;2023-03-01T00:44:14;100842.31;;;6.31;52.61
65666;BME280;52365;47.464;18.976;2023-03-01T00:44:50;100850.59;;;6.48;52.38
65666;BME280;52365;47.464;18.976;2023-03-01T00:45:27;100845.44;;;6.64;52.05
65666;BME280;52365;47.464;18.976;2023-03-01T00:46:09;100850.28;;;6.76;51.59
65666;BME280;52365;47.464;18.976;2023-03-01T00:46:45;100844.97;;;6.73;51.41
65666;BME280;52365;47.464;18.976;2023-03-01T00:47:21;100850.53;;;6.55;51.58
65666;BME280;52365;47.464;18.976;2023-03-01T00:47:57;100852.25;;;6.72;51.81
65666;BME280;52365;47.464;18.976;2023-03-01T00:48:34;100849.56;;;6.72;51.66
65666;BME280;52365;47.464;18.976;2023-03-01T00:49:10;100845.66;;;6.43;51.97
65666;BME280;52365;47.464;18.976;2023-03-01T00:49:46;100846.75;;;6.83;51.42
65666;BME280;52365;47.464;18.976;2023-03-01T00:50:23;100844.28;;;6.99;50.75
65666;BME280;52365;47.464;18.976;2023-03-01T00:51:11;100845.09;;;6.93;50.65
65666;BME280;52365;47.464;18.976;2023-03-01T00:51:47;100839.34;;;6.22;51.89
65666;BME280;52365;47.464;18.976;2023-03-01T00:52:24;100846.09;;;6.38;52.47
65666;BME280;52365;47.464;18.976;2023-03-01T00:53:00;100846.63;;;6.63;51.80
65666;BME280;52365;47.464;18.976;2023-03-01T00:53:36;100843.31;;;6.82;51.39
65666;BME280;52365;47.464;18.976;2023-03-01T00:54:12;100841.41;;;6.83;51.22
65666;BME280;52365;47.464;18.976;2023-03-01T00:54:48;100841.28;;;6.94;50.80
65666;BME280;52365;47.464;18.976;2023-03-01T00:55:25;100834.09;;;6.87;50.76
65666;BME280;52365;47.464;18.976;2023-03-01T00:56:02;100843.06;;;6.73;51.31
65666;BME280;52365;47.464;18.976;2023-03-01T00:56:38;100845.56;;;6.88;50.99
65666;BME280;52365;47.464;18.976;2023-03-01T00:57:15;100834.94;;;6.80;51.01
65666;BME280;52365;47.464;18.976;2023-03-01T00:57:51;100831.00;;;6.17;52.41
65666;BME280;52365;47.464;18.976;2023-03-01T00:58:27;100827.63;;;6.09;53.11
65666;BME280;52365;47.464;18.976;2023-03-01T00:59:03;100838.59;;;6.22;52.77
65666;BME280;52365;47.464;18.976;2023-03-01T00:59:39;100834.00;;;6.60;52.26
65666;BME280;52365;47.464;18.976;2023-03-01T01:00:16;100835.66;;;6.50;52.13
65666;BME280;52365;47.464;18.976;2023-03-01T01:00:52;100835.91;;;6.63;51.74
65666;BME280;52365;47.464;18.976;2023-03-01T01:01:30;100832.94;;;6.85;51.44
65666;BME280;52365;47.464;18.976;2023-03-01T01:02:06;100835.22;;;6.90;51.11
65666;BME280;52365;47.464;18.976;2023-03-01T01:02:42;100834.03;;;6.91;50.98
65666;BME280;52365;47.464;18.976;2023-03-01T01:03:19;100837.59;;;6.46;51.59
65666;BME280;52365;47.464;18.976;2023-03-01T01:04:01;100842.94;;;6.50;51.98
65666;BME280;52365;47.464;18.976;2023-03-01T01:04:37;100837.66;;;6.39;52.15
65666;BME280;52365;47.464;18.976;2023-03-01T01:05:13;100832.88;;;6.23;52.52
65666;BME280;52365;47.464;18.976;2023-03-01T01:05:51;100834.25;;;5.90;53.72
65666;BME280;52365;47.464;18.976;2023-03-01T01:06:30;100831.00;;;6.17;53.39
65666;BME280;52365;47.464;18.976;2023-03-01T01:07:06;100832.12;;;6.57;52.53
65666;BME280;52365;47.464;18.976;2023-03-01T01:07:42;100830.56;;;6.60;52.18
65666;BME280;52365;47.464;18.976;2023-03-01T01:08:19;100832.12;;;6.57;52.28
65666;BME280;52365;47.464;18.976;2023-03-01T01:08:57;100829.28;;;6.71;52.10
65666;BME280;52365;47.464;18.976;2023-03-01T01:09:33;100832.16;;;6.16;52.81
65666;BME280;52365;47.464;18.976;2023-03-01T01:10:09;100829.13;;;6.10;53.34
65666;BME280;52365;47.464;18.976;2023-03-01T01:10:52;100833.41;;;6.45;52.68
65666;BME280;52365;47.464;18.976;2023-03-01T01:11:29;100830.06;;;5.93;53.61
65666;BME280;52365;47.464;18.976;2023-03-01T01:12:05;100827.41;;;5.93;53.99
65666;BME280;52365;47.464;18.976;2023-03-01T01:12:44;100824.50;;;6.14;53.77
65666;BME280;52365;47.464;18.976;2023-03-01T01:13:20;100825.06;;;5.91;53.95
65666;BME280;52365;47.464;18.976;2023-03-01T01:13:56;100827.44;;;6.27;53.55
65666;BME280;52365;47.464;18.976;2023-03-01T01:14:33;100817.97;;;5.70;54.55
65666;BME280;52365;47.464;18.976;2023-03-01T01:15:10;100814.00;;;5.89;54.80
65666;BME280;52365;47.464;18.976;2023-03-01T01:15:48;100812.16;;;5.79;54.71
65666;BME280;52365;47.464;18.976;2023-03-01T01:16:26;100816.31;;;5.84;54.51
65666;BME280;52365;47.464;18.976;2023-03-01T01:17:02;100814.59;;;6.15;54.37
65666;BME280;52365;47.464;18.976;2023-03-01T01:17:38;100803.47;;;6.16;53.83
65666;BME280;52365;47.464;18.976;2023-03-01T01:18:14;100802.13;;;5.97;54.26
65666;BME280;52365;47.464;18.976;2023-03-01T01:18:51;100797.25;;;5.81;54.68
65666;BME280;52365;47.464;18.976;2023-03-01T01:19:27;100803.22;;;5.48;55.91
65666;BME280;52365;47.464;18.976;2023-03-01T01:20:04;100796.50;;;5.22;56.66
65666;BME280;52365;47.464;18.976;2023-03-01T01:20:40;100799.34;;;4.97;57.60
65666;BME280;52365;47.464;18.976;2023-03-01T01:21:19;100797.72;;;5.14;57.53
65666;BME280;52365;47.464;18.976;2023-03-01T01:21:56;100793.75;;;5.92;55.90
65666;BME280;52365;47.464;18.976;2023-03-01T01:22:32;100800.31;;;6.28;54.38
65666;BME280;52365;47.464;18.976;2023-03-01T01:23:08;100793.75;;;5.92;54.81
65666;BME280;52365;47.464;18.976;2023-03-01T01:23:45;100800.94;;;6.02;54.43
65666;BME280;52365;47.464;18.976;2023-03-01T01:24:22;100798.16;;;6.13;54.46
65666;BME280;52365;47.464;18.976;2023-03-01T01:24:58;100803.19;;;6.07;54.32
65666;BME280;52365;47.464;18.976;2023-03-01T01:25:35;100796.37;;;5.99;54.70
65666;BME280;52365;47.464;18.976;2023-03-01T01:26:15;100807.25;;;6.19;54.40
65666;BME280;52365;47.464;18.976;2023-03-01T01:26:51;100804.47;;;6.33;53.44
65666;BME280;52365;47.464;18.976;2023-03-01T01:27:29;100802.69;;;6.19;53.71
65666;BME280;52365;47.464;18.976;2023-03-01T01:28:05;100807.13;;;6.33;53.73
65666;BME280;52365;47.464;18.976;2023-03-01T01:28:41;100813.41;;;6.88;52.67
65666;BME280;52365;47.464;18.976;2023-03-01T01:29:17;100814.56;;;7.17;51.63
65666;BME280;52365;47.464;18.976;2023-03-01T01:29:53;100811.97;;;7.10;51.39
65666;BME280;52365;47.464;18.976;2023-03-01T01:30:30;100809.72;;;6.74;52.03
65666;BME280;52365;47.464;18.976;2023-03-01T01:31:06;100816.69;;;6.68;52.36
65666;BME280;52365;47.464;18.976;2023-03-01T01:31:43;100806.78;;;6.65;52.47
65666;BME280;52365;47.464;18.976;2023-03-01T01:32:19;100806.59;;;6.11;53.58
65666;BME280;52365;47.464;18.976;2023-03-01T01:32:55;100801.41;;;5.90;54.46
65666;BME280;52365;47.464;18.976;2023-03-01T01:33:32;100806.59;;;5.59;55.15
65666;BME280;52365;47.464;18.976;2023-03-01T01:34:14;100803.37;;;5.78;55.23
65666;BME280;52365;47.464;18.976;2023-03-01T01:34:50;100798.66;;;5.97;54.70
65666;BME280;52365;47.464;18.976;2023-03-01T01:35:27;100798.16;;;5.64;55.33
65666;BME280;52365;47.464;18.976;2023-03-01T01:36:05;100798.88;;;5.68;55.48
65666;BME280;52365;47.464;18.976;2023-03-01T01:36:41;100804.19;;;5.75;55.69
65666;BME280;52365;47.464;18.976;2023-03-01T01:37:17;100795.94;;;6.04;55.00
65666;BME280;52365;47.464;18.976;2023-03-01T01:37:53;100797.84;;;6.03;55.02
65666;BME280;52365;47.464;18.976;2023-03-01T01:38:29;100796.69;;;6.04;54.89
65666;BME280;52365;47.464;18.976;2023-03-01T01:39:05;100798.63;;;6.04;54.81
65666;BME280;52365;47.464;18.976;2023-03-01T01:39:43;100795.16;;;6.07;54.92
65666;BME280;52365;47.464;18.976;2023-03-01T01:40:19;100808.81;;;6.16;54.79
65666;BME280;52365;47.464;18.976;2023-03-01T01:40:55;100799.00;;;6.40;53.75
65666;BME280;52365;47.464;18.976;2023-03-01T01:41:31;100792.63;;;6.30;53.96
65666;BME280;52365;47.464;18.976;2023-03-01T01:42:18;100801.78;;;6.33;53.73
65666;BME280;52365;47.464;18.976;2023-03-01T01:42:54;100800.38;;;6.21;54.12
65666;BME280;52365;47.464;18.976;2023-03-01T01:43:34;100795.75;;;6.25;54.17
65666;BME280;52365;47.464;18.976;2023-03-01T01:46:14;100799.66;;;5.69;55.05
65666;BME280;52365;47.464;18.976;2023-03-01T01:47:46;100790.22;;;6.02;55.11
65666;BME280;52365;47.464;18.976;2023-03-01T01:48:46;100792.34;;;6.21;54.31
65666;BME280;52365;47.464;18.976;2023-03-01T01:49:35;100782.37;;;5.80;55.23
65666;BME280;52365;47.464;18.976;2023-03-01T01:50:17;100778.09;;;5.87;55.46
65666;BME280;52365;47.464;18.976;2023-03-01T01:50:58;100777.00;;;5.80;55.53
65666;BME280;52365;47.464;18.976;2023-03-01T01:51:39;100774.88;;;5.61;55.81
65666;BME280;52365;47.464;18.976;2023-03-01T01:52:29;100763.78;;;5.63;56.25
65666;BME280;52365;47.464;18.976;2023-03-01T01:53:10;100757.28;;;5.64;56.19
65666;BME280;52365;47.464;18.976;2023-03-01T01:53:53;100769.78;;;5.77;56.10
65666;BME280;52365;47.464;18.976;2023-03-01T01:55:18;100763.38;;;5.64;56.20
65666;BME280;52365;47.464;18.976;2023-03-01T01:55:58;100760.59;;;5.26;57.06
65666;BME280;52365;47.464;18.976;2023-03-01T01:56:38;100763.38;;;5.64;56.76
65666;BME280;52365;47.464;18.976;2023-03-01T01:57:20;100760.69;;;5.68;56.46
65666;BME280;52365;47.464;18.976;2023-03-01T01:58:01;100767.03;;;5.85;56.12
65666;BME280;52365;47.464;18.976;2023-03-01T01:58:38;100770.47;;;5.85;56.03
65666;BME280;52365;47.464;18.976;2023-03-01T01:59:16;100762.91;;;5.76;56.26
65666;BME280;52365;47.464;18.976;2023-03-01T01:59:54;100761.63;;;5.95;55.83
65666;BME280;52365;47.464;18.976;2023-03-01T02:00:34;100760.06;;;6.36;55.21
65666;BME280;52365;47.464;18.976;2023-03-01T02:01:10;100767.50;;;6.17;54.85
65666;BME280;52365;47.464;18.976;2023-03-01T02:01:47;100766.56;;;6.35;54.30
65666;BME280;52365;47.464;18.976;2023-03-01T02:02:23;100765.78;;;6.38;54.17
65666;BME280;52365;47.464;18.976;2023-03-01T02:03:03;100767.28;;;6.39;54.06
65666;BME280;52365;47.464;18.976;2023-03-01T02:03:42;100765.28;;;6.12;54.44
65666;BME280;52365;47.464;18.976;2023-03-01T02:04:20;100761.75;;;5.77;55.59
65666;BME280;52365;47.464;18.976;2023-03-01T02:05:11;100759.81;;;5.81;55.96
65666;BME280;52365;47.464;18.976;2023-03-01T02:05:57;100771.06;;;6.07;55.69
65666;BME280;52365;47.464;18.976;2023-03-01T02:06:40;100767.22;;;5.63;56.25
65666;BME280;52365;47.464;18.976;2023-03-01T02:07:22;100761.00;;;5.73;56.51
65666;BME280;52365;47.464;18.976;2023-03-01T02:07:59;100761.00;;;6.18;55.58
65666;BME280;52365;47.464;18.976;2023-03-01T02:08:38;100766.69;;;6.24;54.80
65666;BME280;52365;47.464;18.976;2023-03-01T02:09:18;100772.34;;;5.88;55.51
65666;BME280;52365;47.464;18.976;2023-03-01T02:09:56;100766.22;;;5.95;55.39
65666;BME280;52365;47.464;18.976;2023-03-01T02:10:34;100768.38;;;6.07;55.06
65666;BME280;52365;47.464;18.976;2023-03-01T02:11:10;100766.50;;;6.04;55.02
65666;BME280;52365;47.464;18.976;2023-03-01T02:11:51;100768.03;;;5.53;56.30
65666;BME280;52365;47.464;18.976;2023-03-01T02:12:28;100761.78;;;5.70;56.50
65666;BME280;52365;47.464;18.976;2023-03-01T02:13:05;100763.09;;;6.00;55.77
65666;BME280;52365;47.464;18.976;2023-03-01T02:13:41;100762.94;;;5.73;55.93
65666;BME280;52365;47.464;18.976;2023-03-01T02:14:18;100756.56;;;5.56;56.60
65666;BME280;52365;47.464;18.976;2023-03-01T02:14:54;100751.63;;;5.54;56.86
65666;BME280;52365;47.464;18.976;2023-03-01T02:15:34;100767.78;;;5.89;56.33
65666;BME280;52365;47.464;18.976;2023-03-01T02:16:13;100755.72;;;5.66;55.92
65666;BME280;52365;47.464;18.976;2023-03-01T02:16:50;100761.84;;;5.67;56.31
65666;BME280;52365;47.464;18.976;2023-03-01T02:17:26;100769.31;;;5.86;55.75
65666;BME280;52365;47.464;18.976;2023-03-01T02:18:03;100767.41;;;5.87;56.18
65666;BME280;52365;47.464;18.976;2023-03-01T02:18:41;100764.00;;;5.79;55.60
65666;BME280;52365;47.464;18.976;2023-03-01T02:20:04;100765.16;;;5.81;55.87
65666;BME280;52365;47.464;18.976;2023-03-01T02:21:59;100767.00;;;5.92;55.68
65666;BME280;52365;47.464;18.976;2023-03-01T02:22:38;100764.72;;;5.87;55.90
65666;BME280;52365;47.464;18.976;2023-03-01T02:23:15;100767.00;;;5.92;55.83
65666;BME280;52365;47.464;18.976;2023-03-01T02:23:53;100763.22;;;5.82;56.14
65666;BME280;52365;47.464;18.976;2023-03-01T02:26:51;100764.25;;;5.50;57.62
65666;BME280;52365;47.464;18.976;2023-03-01T02:27:36;100762.75;;;5.49;57.39
65666;BME280;52365;47.464;18.976;2023-03-01T02:28:53;100752.19;;;5.32;57.77
65666;BME280;52365;47.464;18.976;2023-03-01T02:29:29;100754.03;;;5.38;57.77
65666;BME280;52365;47.464;18.976;2023-03-01T02:30:07;100753.62;;;5.40;57.76
65666;BME280;52365;47.464;18.976;2023-03-01T02:30:46;100759.56;;;5.62;57.19
65666;BME280;52365;47.464;18.976;2023-03-01T02:31:41;100747.44;;;5.53;57.29
65666;BME280;52365;47.464;18.976;2023-03-01T02:32:18;100751.22;;;5.56;57.53
65666;BME280;52365;47.464;18.976;2023-03-01T02:33:03;100747.06;;;5.51;57.52
65666;BME280;52365;47.464;18.976;2023-03-01T02:33:39;100751.53;;;5.13;58.99
65666;BME280;52365;47.464;18.976;2023-03-01T02:34:20;100755.22;;;5.34;58.51
65666;BME280;52365;47.464;18.976;2023-03-01T02:34:57;100750.69;;;5.27;58.66
65666;BME280;52365;47.464;18.976;2023-03-01T02:35:37;100751.25;;;4.97;59.30
65666;BME280;52365;47.464;18.976;2023-03-01T02:36:18;100752.75;;;5.01;59.80
65666;BME280;52365;47.464;18.976;2023-03-01T02:37:05;100747.44;;;4.91;59.88
65666;BME280;52365;47.464;18.976;2023-03-01T02:37:42;100753.50;;;5.05;59.93
65666;BME280;52365;47.464;18.976;2023-03-01T02:38:20;100754.09;;;4.58;60.94
65666;BME280;52365;47.464;18.976;2023-03-01T02:38:58;100749.53;;;4.47;61.79
65666;BME280;52365;47.464;18.976;2023-03-01T02:39:42;100752.19;;;4.54;62.05
65666;BME280;52365;47.464;18.976;2023-03-01T02:40:20;100753.34;;;4.53;61.60
65666;BME280;52365;47.464;18.976;2023-03-01T02:40:57;100748.72;;;4.68;61.66
65666;BME280;52365;47.464;18.976;2023-03-01T02:41:36;100746.47;;;4.56;61.50
65666;BME280;52365;47.464;18.976;2023-03-01T02:42:18;100753.25;;;4.78;61.24
65666;BME280;52365;47.464;18.976;2023-03-01T02:42:58;100754.06;;;4.68;61.12
65666;BME280;52365;47.464;18.976;2023-03-01T02:43:35;100743.78;;;4.56;61.53
65666;BME280;52365;47.464;18.976;2023-03-01T02:44:11;100747.97;;;4.61;61.40
65666;BME280;52365;47.464;18.976;2023-03-01T02:44:49;100751.75;;;4.70;60.92
65666;BME280;52365;47.464;18.976;2023-03-01T02:45:26;100743.78;;;4.56;61.09
65666;BME280;52365;47.464;18.976;2023-03-01T02:46:06;100745.09;;;5.00;60.41
65666;BME280;52365;47.464;18.976;2023-03-01T02:46:46;100739.44;;;4.94;60.08
65666;BME280;52365;47.464;18.976;2023-03-01T02:47:23;100745.59;;;4.88;60.46
65666;BME280;52365;47.464;18.976;2023-03-01T02:47:59;100735.28;;;4.86;60.68
65666;BME280;52365;47.464;18.976;2023-03-01T02:48:46;100739.16;;;4.74;60.91
65666;BME280;52365;47.464;18.976;2023-03-01T02:49:29;100737.25;;;4.75;61.10
65666;BME280;52365;47.464;18.976;2023-03-01T02:52:39;100737.06;;;5.07;60.17
65666;BME280;52365;47.464;18.976;2023-03-01T02:53:33;100734.09;;;4.94;60.15
65666;BME280;52365;47.464;18.976;2023-03-01T02:54:27;100743.03;;;5.25;59.87
65666;BME280;52365;47.464;18.976;2023-03-01T02:55:14;100736.78;;;4.91;59.95
65666;BME280;52365;47.464;18.976;2023-03-01T02:55:52;100739.38;;;5.05;60.09
65666;BME280;52365;47.464;18.976;2023-03-01T02:56:29;100741.63;;;5.10;60.30
65666;BME280;52365;47.464;18.976;2023-03-01T02:57:05;100737.75;;;5.18;60.13
65666;BME280;52365;47.464;18.976;2023-03-01T02:57:45;100740.78;;;5.20;59.68
65666;BME280;52365;47.464;18.976;2023-03-01T02:58:21;100740.38;;;5.25;59.43
65666;BME280;52365;47.464;18.976;2023-03-01T02:58:58;100736.28;;;5.14;59.91
65666;BME280;52365;47.464;18.976;2023-03-01T02:59:37;100739.75;;;5.00;60.11
65666;BME280;52365;47.464;18.976;2023-03-01T03:00:24;100735.91;;;5.04;60.27
65666;BME280;52365;47.464;18.976;2023-03-01T03:01:02;100740.66;;;4.79;60.55
65666;BME280;52365;47.464;18.976;2023-03-01T03:01:38;100736.28;;;5.14;60.54
65666;BME280;52365;47.464;18.976;2023-03-01T03:02:25;100741.63;;;5.62;59.23
65666;BME280;52365;47.464;18.976;2023-03-01T03:03:14;100734.56;;;5.82;58.22
65666;BME280;52365;47.464;18.976;2023-03-01T03:03:50;100745.59;;;5.92;57.75
65666;BME280;52365;47.464;18.976;2023-03-01T03:04:26;100735.87;;;5.67;57.99
65666;BME280;52365;47.464;18.976;2023-03-01T03:05:15;100740.19;;;5.99;57.34
65666;BME280;52365;47.464;18.976;2023-03-01T03:05:51;100744.69;;;6.05;57.03
65666;BME280;52365;47.464;18.976;2023-03-01T03:06:27;100741.78;;;5.89;57.23
65666;BME280;52365;47.464;18.976;2023-03-01T03:07:03;100734.88;;;5.88;57.51
65666;BME280;52365;47.464;18.976;2023-03-01T03:07:42;100734.94;;;5.85;57.29
65666;BME280;52365;47.464;18.976;2023-03-01T03:08:19;100734.22;;;5.80;57.35
65666;BME280;52365;47.464;18.976;2023-03-01T03:08:59;100731.03;;;5.48;58.21
65666;BME280;52365;47.464;18.976;2023-03-01T03:09:36;100736.22;;;5.21;59.22
65666;BME280;52365;47.464;18.976;2023-03-01T03:10:15;100739.38;;;5.05;60.04
65666;BME280;52365;47.464;18.976;2023-03-01T03:10:52;100727.69;;;5.40;59.46
65666;BME280;52365;47.464;18.976;2023-03-01T03:11:28;100729.31;;;5.23;59.25
65666;BME280;52365;47.464;18.976;2023-03-01T03:12:05;100737.28;;;5.30;59.58
65666;BME280;52365;47.464;18.976;2023-03-01T03:12:41;100734.72;;;5.16;59.81
65666;BME280;52365;47.464;18.976;2023-03-01T03:13:18;100730.62;;;5.01;60.42
65666;BME280;52365;47.464;18.976;2023-03-01T03:13:54;100734.88;;;5.47;59.68
65666;BME280;52365;47.464;18.976;2023-03-01T03:14:31;100735.09;;;5.67;58.51
65666;BME280;52365;47.464;18.976;2023-03-01T03:15:10;100731.97;;;5.27;59.38
65666;BME280;52365;47.464;18.976;2023-03-01T03:15:48;100721.97;;;5.38;59.39
65666;BME280;52365;47.464;18.976;2023-03-01T03:16:24;100725.78;;;5.37;59.19
65666;BME280;52365;47.464;18.976;2023-03-01T03:17:00;100727.28;;;4.83;60.18
65666;BME280;52365;47.464;18.976;2023-03-01T03:17:37;100733.44;;;4.69;61.25
65666;BME280;52365;47.464;18.976;2023-03-01T03:18:16;100725.00;;;4.81;61.28
65666;BME280;52365;47.464;18.976;2023-03-01T03:18:52;100728.22;;;5.17;60.56
65666;BME280;52365;47.464;18.976;2023-03-01T03:19:28;100722.25;;;5.51;59.75
65666;BME280;52365;47.464;18.976;2023-03-01T03:20:05;100722.34;;;5.81;58.45
65666;BME280;52365;47.464;18.976;2023-03-01T03:20:47;100721.50;;;5.47;58.38
65666;BME280;52365;47.464;18.976;2023-03-01T03:21:23;100712.47;;;5.30;59.20
65666;BME280;52365;47.464;18.976;2023-03-01T03:21:59;100726.94;;;5.36;59.11
65666;BME280;52365;47.464;18.976;2023-03-01T03:22:35;100713.97;;;5.31;59.38
65666;BME280;52365;47.464;18.976;2023-03-01T03:23:12;100723.59;;;5.21;59.72
65666;BME280;52365;47.464;18.976;2023-03-01T03:23:48;100716.66;;;5.31;59.68
65666;BME280;52365;47.464;18.976;2023-03-01T03:24:24;100718.72;;;5.09;60.06
65666;BME280;52365;47.464;18.976;2023-03-01T03:25:00;100708.25;;;5.33;59.71
65666;BME280;52365;47.464;18.976;2023-03-01T03:25:36;100716.03;;;5.61;59.06
65666;BME280;52365;47.464;18.976;2023-03-01T03:26:13;100718.03;;;5.01;59.67
65666;BME280;52365;47.464;18.976;2023-03-01T03:26:50;100714.34;;;4.74;60.87
65666;BME280;52365;47.464;18.976;2023-03-01T03:27:28;100712.28;;;4.99;60.87
65666;BME280;52365;47.464;18.976;2023-03-01T03:28:06;100709.72;;;4.82;61.11
65666;BME280;52365;47.464;18.976;2023-03-01T03:28:45;100713.34;;;5.13;60.58
65666;BME280;52365;47.464;18.976;2023-03-01T03:29:22;100714.50;;;5.12;60.36
65666;BME280;52365;47.464;18.976;2023-03-01T03:29:58;100709.72;;;4.85;60.98
65666;BME280;52365;47.464;18.976;2023-03-01T03:30:37;100717.72;;;4.89;60.97